createdAt,value
2018-10-19T14:03:18.403Z,24.18
2018-10-19T14:05:46.927Z,24.83
2018-10-19T14:08:15.430Z,19.57
2018-10-19T14:10:43.906Z,18.93
2018-10-19T14:13:12.330Z,23.77
2018-10-19T14:15:40.769Z,20.33
2018-10-19T14:18:09.201Z,20.17
2018-10-19T14:20:37.678Z,21.23
2018-10-19T14:23:06.750Z,21.67
2018-10-19T14:25:35.243Z,21.03
2018-10-19T14:28:03.708Z,23.00
2018-10-19T14:30:32.229Z,21.73
2018-10-19T14:33:00.819Z,22.80
2018-10-19T14:35:29.255Z,22.80
2018-10-19T14:37:58.374Z,23.80
2018-10-19T14:40:26.818Z,26.27
2018-10-19T14:42:55.301Z,20.70
2018-10-19T14:45:23.759Z,22.47
2018-10-19T14:47:52.219Z,19.13
2018-10-19T14:50:20.770Z,25.60
2018-10-19T14:52:49.209Z,20.57
2018-10-19T14:55:18.741Z,20.57
2018-10-19T14:57:47.190Z,18.80
2018-10-19T15:00:17.811Z,19.03
2018-10-19T15:02:46.438Z,21.53
2018-10-19T15:05:16.410Z,20.20
2018-10-19T15:07:44.863Z,21.93
2018-10-19T15:10:15.692Z,20.90
2018-10-19T15:12:44.226Z,18.53
2018-10-19T15:15:15.290Z,20.30
2018-10-19T15:17:44.025Z,20.77
2018-10-19T15:20:13.374Z,20.00
2018-10-19T15:22:41.822Z,19.23
2018-10-19T15:25:10.752Z,20.83
2018-10-19T15:27:40.245Z,20.07
2018-10-19T15:30:11.068Z,20.80
2018-10-19T15:32:39.429Z,21.37
2018-10-19T15:35:08.166Z,21.67
2018-10-19T15:37:36.607Z,22.87
2018-10-19T15:40:05.726Z,21.10
2018-10-19T15:42:34.177Z,21.43
2018-10-19T15:45:02.749Z,20.90
2018-10-19T15:47:32.307Z,26.97
2018-10-19T15:50:00.783Z,21.07
2018-10-19T15:52:29.672Z,20.47
2018-10-19T15:54:58.217Z,20.73
2018-10-19T15:57:26.738Z,19.57
2018-10-19T15:59:55.189Z,19.17
2018-10-19T16:02:23.711Z,19.83
2018-10-19T16:04:52.182Z,20.63
2018-10-19T16:07:20.642Z,20.63
2018-10-19T16:09:49.124Z,17.90
2018-10-19T16:12:17.566Z,19.07
2018-10-19T16:14:46.066Z,17.90
2018-10-19T16:17:14.594Z,18.87
2018-10-19T16:19:43.165Z,16.17
2018-10-19T16:22:11.703Z,15.07
2018-10-19T16:24:40.195Z,18.33
2018-10-19T16:27:08.684Z,17.20
2018-10-19T16:29:37.092Z,17.63
2018-10-19T16:32:06.009Z,20.63
2018-10-19T16:34:34.829Z,17.57
2018-10-19T16:37:03.251Z,16.87
2018-10-19T16:39:31.690Z,20.33
2018-10-19T16:42:00.163Z,18.40
2018-10-19T16:44:29.232Z,16.50
2018-10-19T16:46:57.899Z,21.97
2018-10-19T16:49:26.349Z,19.40
2018-10-19T16:51:54.842Z,15.77
2018-10-19T16:54:23.285Z,19.40
2018-10-19T16:56:51.760Z,17.50
2018-10-19T16:59:20.196Z,19.93
2018-10-19T17:01:48.711Z,19.03
2018-10-19T17:04:17.147Z,16.27
2018-10-19T17:06:45.578Z,17.07
2018-10-19T17:09:14.745Z,17.07
2018-10-19T17:11:43.272Z,15.63
2018-10-19T17:14:12.018Z,17.07
2018-10-19T17:16:40.475Z,18.70
2018-10-19T17:19:09.452Z,18.30
2018-10-19T17:21:38.071Z,19.93
2018-10-19T17:24:07.075Z,22.33
2018-10-19T17:26:35.613Z,22.83
2018-10-19T17:29:04.432Z,20.77
2018-10-19T17:31:33.176Z,23.80
2018-10-19T17:34:01.575Z,21.87
2018-10-19T17:36:30.037Z,22.67
2018-10-19T17:38:58.632Z,25.97
2018-10-19T17:41:27.276Z,25.30
2018-10-19T17:43:55.825Z,21.50
2018-10-19T17:46:24.306Z,23.33
2018-10-19T17:48:52.993Z,25.27
2018-10-19T17:51:21.395Z,21.97
2018-10-19T17:53:49.982Z,29.80
2018-10-19T17:56:18.402Z,24.33
2018-10-19T17:58:46.866Z,23.20
2018-10-19T18:01:15.305Z,25.00
2018-10-19T18:03:43.833Z,21.60
2018-10-19T18:06:12.346Z,24.00
2018-10-19T18:08:40.768Z,34.10
2018-10-19T18:11:09.296Z,31.30
2018-10-19T18:13:37.709Z,29.40
2018-10-19T18:16:06.291Z,26.20
2018-10-19T18:18:34.706Z,28.00
2018-10-19T18:21:03.252Z,25.77
2018-10-19T18:23:31.725Z,30.77
2018-10-19T18:26:02.025Z,27.63
2018-10-19T18:28:31.132Z,30.50
2018-10-19T18:30:59.703Z,33.20
2018-10-19T18:33:28.233Z,38.23
2018-10-19T18:35:56.881Z,28.23
2018-10-19T18:38:25.349Z,31.20
2018-10-19T18:40:56.287Z,35.33
2018-10-19T18:43:24.989Z,29.30
2018-10-19T18:45:53.430Z,32.73
2018-10-19T18:48:21.903Z,32.47
2018-10-19T18:50:50.487Z,27.90
2018-10-19T18:53:18.918Z,36.40
2018-10-19T18:55:47.350Z,36.30
2018-10-19T18:58:15.834Z,32.40
2018-10-19T19:00:45.525Z,35.13
2018-10-19T19:03:14.222Z,36.77
2018-10-19T19:05:43.989Z,33.63
2018-10-19T19:08:12.511Z,36.67
2018-10-19T19:10:40.927Z,35.03
2018-10-19T19:13:14.728Z,35.03
2018-10-19T19:15:43.212Z,33.17
2018-10-19T19:18:11.649Z,42.70
2018-10-19T19:20:40.138Z,36.80
2018-10-19T19:23:09.120Z,38.60
2018-10-19T19:25:43.094Z,48.07
2018-10-19T19:28:11.582Z,51.50
2018-10-19T19:30:40.090Z,47.80
2018-10-19T19:33:14.039Z,42.80
2018-10-19T19:35:42.487Z,40.77
2018-10-19T19:38:11.048Z,43.00
2018-10-19T19:40:45.834Z,39.47
2018-10-19T19:43:14.269Z,40.90
2018-10-19T19:45:42.839Z,45.20
2018-10-19T19:48:16.646Z,36.77
2018-10-19T19:50:45.378Z,34.87
2018-10-19T19:53:13.915Z,40.77
2018-10-19T19:55:42.399Z,41.33
2018-10-19T19:58:10.998Z,35.40
2018-10-19T20:00:39.445Z,41.33
2018-10-19T20:03:07.923Z,38.00
2018-10-19T20:05:36.403Z,40.67
2018-10-19T20:08:05.318Z,31.90
2018-10-19T20:10:33.782Z,39.27
2018-10-19T20:13:02.411Z,37.97
2018-10-19T20:15:30.907Z,38.57
2018-10-19T20:18:00.067Z,39.27
2018-10-19T20:20:29.601Z,40.07
2018-10-19T20:22:58.148Z,35.70
2018-10-19T20:25:26.665Z,37.50
2018-10-19T20:27:55.190Z,38.83
2018-10-19T20:30:23.693Z,38.37
2018-10-19T20:32:52.215Z,40.50
2018-10-19T20:35:20.691Z,37.10
2018-10-19T20:37:49.286Z,39.43
2018-10-19T20:40:24.482Z,38.67
2018-10-19T20:42:53.486Z,41.40
2018-10-19T20:45:21.939Z,43.80
2018-10-19T20:47:50.418Z,43.67
2018-10-19T20:50:18.963Z,44.03
2018-10-19T20:52:47.438Z,45.33
2018-10-19T20:55:15.982Z,46.73
2018-10-19T20:57:44.459Z,44.77
2018-10-19T21:00:13.043Z,39.70
2018-10-19T21:02:41.562Z,45.97
2018-10-19T21:05:11.355Z,46.90
2018-10-19T21:07:39.880Z,48.30
2018-10-19T21:10:11.304Z,45.83
2018-10-19T21:12:39.789Z,44.27
2018-10-19T21:15:10.742Z,45.20
2018-10-19T21:17:39.574Z,43.90
2018-10-19T21:20:09.198Z,46.80
2018-10-19T21:22:37.736Z,43.17
2018-10-19T21:25:07.332Z,49.53
2018-10-19T21:27:36.001Z,45.43
2018-10-19T21:30:04.801Z,49.83
2018-10-19T21:32:33.208Z,47.93
2018-10-19T21:35:01.690Z,50.50
2018-10-19T21:37:30.171Z,49.20
2018-10-19T21:39:58.627Z,52.63
2018-10-19T21:42:27.106Z,44.37
2018-10-19T21:44:55.623Z,56.53
2018-10-19T21:47:24.529Z,48.30
2018-10-19T21:49:53.070Z,57.03
2018-10-19T21:52:21.550Z,53.33
2018-10-19T21:54:50.170Z,57.30
2018-10-19T21:57:18.746Z,55.73
2018-10-19T21:59:47.209Z,55.43
2018-10-19T22:02:16.706Z,56.27
2018-10-19T22:04:45.202Z,55.00
2018-10-19T22:07:13.774Z,49.70
2018-10-19T22:09:42.305Z,50.33
2018-10-19T22:12:10.858Z,49.33
2018-10-19T22:14:39.398Z,49.10
2018-10-19T22:17:07.976Z,48.23
2018-10-19T22:19:36.415Z,49.80
2018-10-19T22:22:04.963Z,48.47
2018-10-19T22:24:33.480Z,50.07
2018-10-19T22:27:08.283Z,56.27
2018-10-19T22:29:36.762Z,50.67
2018-10-19T22:32:05.695Z,50.33
2018-10-19T22:34:34.174Z,49.53
2018-10-19T22:37:02.668Z,49.97
2018-10-19T22:39:31.153Z,53.67
2018-10-19T22:41:59.627Z,53.33
2018-10-19T22:44:28.094Z,57.13
2018-10-19T22:46:56.866Z,55.53
2018-10-19T22:49:25.338Z,49.07
2018-10-19T22:51:53.834Z,49.63
2018-10-19T22:54:22.299Z,51.43
2018-10-19T22:56:50.818Z,47.53
2018-10-19T22:59:19.748Z,47.13
2018-10-19T23:01:48.211Z,48.67
2018-10-19T23:04:16.666Z,54.53
2018-10-19T23:06:45.241Z,52.63
2018-10-19T23:09:13.717Z,57.03
2018-10-19T23:11:42.173Z,69.27
2018-10-19T23:14:10.691Z,63.03
2018-10-19T23:16:39.164Z,67.90
2018-10-19T23:19:07.648Z,66.23
2018-10-19T23:21:36.464Z,56.23
2018-10-19T23:24:05.630Z,66.17
2018-10-19T23:26:34.194Z,63.97
2018-10-19T23:29:02.824Z,72.90
2018-10-19T23:31:31.419Z,69.40
2018-10-19T23:33:59.796Z,73.17
2018-10-19T23:36:28.242Z,73.33
2018-10-19T23:38:56.751Z,72.27
2018-10-19T23:41:25.206Z,70.67
2018-10-19T23:43:53.766Z,67.23
2018-10-19T23:46:22.193Z,70.03
2018-10-19T23:48:50.662Z,62.67
2018-10-19T23:51:19.142Z,58.63
2018-10-19T23:53:47.595Z,61.53
2018-10-19T23:56:16.095Z,73.20
2018-10-19T23:58:44.523Z,77.23
